sensor_id;sensor_type;location;lat;lon;timestamp;P1;durP1;ratioP1;P2;durP2;ratioP2
73593;SDS011;64760;53.404;23.498;2023-02-28T00:01:22;6.00;;;3.22;;
73593;SDS011;64760;53.404;23.498;2023-02-28T00:03:49;7.13;;;5.40;;
73593;SDS011;64760;53.404;23.498;2023-02-28T00:06:15;15.50;;;5.97;;
73593;SDS011;64760;53.404;23.498;2023-02-28T00:08:42;18.30;;;8.32;;
73593;SDS011;64760;53.404;23.498;2023-02-28T00:11:10;24.88;;;9.77;;
73593;SDS011;64760;53.404;23.498;2023-02-28T00:13:40;10.63;;;5.43;;
73593;SDS011;64760;53.404;23.498;2023-02-28T00:16:09;12.45;;;7.43;;
73593;SDS011;64760;53.404;23.498;2023-02-28T00:18:37;22.95;;;8.90;;
73593;SDS011;64760;53.404;23.498;2023-02-28T00:21:04;23.88;;;8.40;;
73593;SDS011;64760;53.404;23.498;2023-02-28T00:23:30;20.65;;;9.45;;
73593;SDS011;64760;53.404;23.498;2023-02-28T00:25:58;27.05;;;9.52;;
73593;SDS011;64760;53.404;23.498;2023-02-28T00:28:25;23.65;;;9.73;;
73593;SDS011;64760;53.404;23.498;2023-02-28T00:30:51;18.52;;;9.85;;
73593;SDS011;64760;53.404;23.498;2023-02-28T00:33:17;22.42;;;9.93;;
73593;SDS011;64760;53.404;23.498;2023-02-28T00:35:44;23.38;;;12.55;;
73593;SDS011;64760;53.404;23.498;2023-02-28T00:38:12;19.48;;;8.73;;
73593;SDS011;64760;53.404;23.498;2023-02-28T00:40:39;15.88;;;8.30;;
73593;SDS011;64760;53.404;23.498;2023-02-28T00:43:10;18.25;;;7.32;;
73593;SDS011;64760;53.404;23.498;2023-02-28T00:45:37;45.95;;;17.90;;
73593;SDS011;64760;53.404;23.498;2023-02-28T00:48:04;47.80;;;20.02;;
73593;SDS011;64760;53.404;23.498;2023-02-28T00:50:31;61.75;;;24.10;;
73593;SDS011;64760;53.404;23.498;2023-02-28T00:52:58;58.63;;;22.08;;
73593;SDS011;64760;53.404;23.498;2023-02-28T00:55:24;43.78;;;19.65;;
73593;SDS011;64760;53.404;23.498;2023-02-28T00:57:50;34.38;;;16.77;;
73593;SDS011;64760;53.404;23.498;2023-02-28T01:00:17;47.45;;;23.45;;
73593;SDS011;64760;53.404;23.498;2023-02-28T01:02:43;47.60;;;21.92;;
73593;SDS011;64760;53.404;23.498;2023-02-28T01:05:10;47.30;;;19.90;;
73593;SDS011;64760;53.404;23.498;2023-02-28T01:07:36;52.83;;;26.88;;
73593;SDS011;64760;53.404;23.498;2023-02-28T01:10:04;74.97;;;33.03;;
73593;SDS011;64760;53.404;23.498;2023-02-28T01:12:31;84.32;;;38.25;;
73593;SDS011;64760;53.404;23.498;2023-02-28T01:14:58;85.93;;;37.83;;
73593;SDS011;64760;53.404;23.498;2023-02-28T01:17:25;67.63;;;28.38;;
73593;SDS011;64760;53.404;23.498;2023-02-28T01:19:53;77.80;;;29.48;;
73593;SDS011;64760;53.404;23.498;2023-02-28T01:22:21;127.43;;;48.03;;
73593;SDS011;64760;53.404;23.498;2023-02-28T01:24:47;115.15;;;45.28;;
73593;SDS011;64760;53.404;23.498;2023-02-28T01:27:14;91.10;;;34.30;;
73593;SDS011;64760;53.404;23.498;2023-02-28T01:29:40;75.65;;;31.00;;
73593;SDS011;64760;53.404;23.498;2023-02-28T01:32:06;71.30;;;27.83;;
73593;SDS011;64760;53.404;23.498;2023-02-28T01:34:35;83.70;;;32.33;;
73593;SDS011;64760;53.404;23.498;2023-02-28T01:37:03;86.10;;;34.08;;
73593;SDS011;64760;53.404;23.498;2023-02-28T01:39:30;79.30;;;31.08;;
73593;SDS011;64760;53.404;23.498;2023-02-28T01:41:56;59.85;;;25.77;;
73593;SDS011;64760;53.404;23.498;2023-02-28T01:47:36;57.45;;;23.73;;
73593;SDS011;64760;53.404;23.498;2023-02-28T01:50:07;54.45;;;20.27;;
73593;SDS011;64760;53.404;23.498;2023-02-28T01:52:38;57.15;;;22.42;;
73593;SDS011;64760;53.404;23.498;2023-02-28T01:55:06;59.50;;;25.83;;
73593;SDS011;64760;53.404;23.498;2023-02-28T01:57:36;52.90;;;23.48;;
73593;SDS011;64760;53.404;23.498;2023-02-28T02:00:10;61.08;;;25.40;;
73593;SDS011;64760;53.404;23.498;2023-02-28T02:02:40;61.85;;;24.45;;
73593;SDS011;64760;53.404;23.498;2023-02-28T02:05:10;64.40;;;24.17;;
73593;SDS011;64760;53.404;23.498;2023-02-28T02:07:41;57.38;;;25.80;;
73593;SDS011;64760;53.404;23.498;2023-02-28T02:10:17;47.25;;;21.15;;
73593;SDS011;64760;53.404;23.498;2023-02-28T02:13:08;62.95;;;24.17;;
73593;SDS011;64760;53.404;23.498;2023-02-28T02:15:52;66.10;;;25.13;;
73593;SDS011;64760;53.404;23.498;2023-02-28T02:18:42;65.05;;;27.52;;
73593;SDS011;64760;53.404;23.498;2023-02-28T02:21:22;60.92;;;26.60;;
73593;SDS011;64760;53.404;23.498;2023-02-28T02:29:35;37.38;;;16.98;;
73593;SDS011;64760;53.404;23.498;2023-02-28T02:32:21;59.92;;;27.48;;
73593;SDS011;64760;53.404;23.498;2023-02-28T02:37:32;43.92;;;19.50;;
73593;SDS011;64760;53.404;23.498;2023-02-28T02:40:10;35.90;;;16.13;;
73593;SDS011;64760;53.404;23.498;2023-02-28T02:48:45;44.72;;;18.85;;
73593;SDS011;64760;53.404;23.498;2023-02-28T02:51:14;55.25;;;23.10;;
73593;SDS011;64760;53.404;23.498;2023-02-28T02:53:48;64.20;;;22.77;;
73593;SDS011;64760;53.404;23.498;2023-02-28T02:56:34;63.80;;;26.75;;
73593;SDS011;64760;53.404;23.498;2023-02-28T02:59:04;60.33;;;24.10;;
73593;SDS011;64760;53.404;23.498;2023-02-28T03:01:35;61.58;;;25.58;;
73593;SDS011;64760;53.404;23.498;2023-02-28T03:04:08;53.75;;;21.10;;
73593;SDS011;64760;53.404;23.498;2023-02-28T03:06:38;34.28;;;16.88;;
73593;SDS011;64760;53.404;23.498;2023-02-28T03:09:04;38.00;;;14.80;;
73593;SDS011;64760;53.404;23.498;2023-02-28T03:11:31;31.85;;;14.68;;
73593;SDS011;64760;53.404;23.498;2023-02-28T03:27:30;34.95;;;15.35;;
73593;SDS011;64760;53.404;23.498;2023-02-28T03:29:59;41.10;;;13.93;;
73593;SDS011;64760;53.404;23.498;2023-02-28T03:32:36;32.78;;;14.25;;
73593;SDS011;64760;53.404;23.498;2023-02-28T03:35:14;35.50;;;13.13;;
73593;SDS011;64760;53.404;23.498;2023-02-28T03:37:48;35.20;;;15.75;;
73593;SDS011;64760;53.404;23.498;2023-02-28T03:40:22;37.20;;;15.38;;
73593;SDS011;64760;53.404;23.498;2023-02-28T03:42:53;31.73;;;15.63;;
73593;SDS011;64760;53.404;23.498;2023-02-28T03:45:25;32.55;;;15.00;;
73593;SDS011;64760;53.404;23.498;2023-02-28T03:47:58;35.83;;;14.63;;
73593;SDS011;64760;53.404;23.498;2023-02-28T03:53:27;38.55;;;18.70;;
73593;SDS011;64760;53.404;23.498;2023-02-28T03:55:59;42.58;;;20.05;;
73593;SDS011;64760;53.404;23.498;2023-02-28T03:58:35;42.47;;;23.02;;
73593;SDS011;64760;53.404;23.498;2023-02-28T04:01:08;51.72;;;19.27;;
73593;SDS011;64760;53.404;23.498;2023-02-28T04:03:41;35.85;;;15.02;;
73593;SDS011;64760;53.404;23.498;2023-02-28T04:06:08;23.23;;;10.57;;
73593;SDS011;64760;53.404;23.498;2023-02-28T04:08:41;25.77;;;11.10;;
73593;SDS011;64760;53.404;23.498;2023-02-28T04:11:12;19.02;;;10.15;;
73593;SDS011;64760;53.404;23.498;2023-02-28T04:13:45;27.80;;;11.38;;
73593;SDS011;64760;53.404;23.498;2023-02-28T04:16:12;27.88;;;12.93;;
73593;SDS011;64760;53.404;23.498;2023-02-28T04:18:39;32.28;;;16.58;;
73593;SDS011;64760;53.404;23.498;2023-02-28T04:21:06;40.58;;;13.52;;
73593;SDS011;64760;53.404;23.498;2023-02-28T04:23:33;52.00;;;21.02;;
73593;SDS011;64760;53.404;23.498;2023-02-28T04:25:59;47.65;;;17.45;;
73593;SDS011;64760;53.404;23.498;2023-02-28T04:28:25;43.45;;;19.02;;
73593;SDS011;64760;53.404;23.498;2023-02-28T04:30:59;29.38;;;15.68;;
73593;SDS011;64760;53.404;23.498;2023-02-28T04:33:28;39.28;;;15.75;;
73593;SDS011;64760;53.404;23.498;2023-02-28T04:36:05;31.48;;;11.40;;
73593;SDS011;64760;53.404;23.498;2023-02-28T04:38:35;25.67;;;10.18;;
73593;SDS011;64760;53.404;23.498;2023-02-28T04:41:03;24.42;;;12.18;;
73593;SDS011;64760;53.404;23.498;2023-02-28T04:43:30;27.02;;;11.73;;
73593;SDS011;64760;53.404;23.498;2023-02-28T04:45:57;21.52;;;10.85;;
73593;SDS011;64760;53.404;23.498;2023-02-28T04:48:29;30.45;;;11.27;;
73593;SDS011;64760;53.404;23.498;2023-02-28T04:51:04;37.85;;;15.52;;
73593;SDS011;64760;53.404;23.498;2023-02-28T04:53:33;26.08;;;13.45;;
73593;SDS011;64760;53.404;23.498;2023-02-28T04:56:00;22.05;;;11.07;;
73593;SDS011;64760;53.404;23.498;2023-02-28T04:58:27;32.75;;;13.75;;
73593;SDS011;64760;53.404;23.498;2023-02-28T05:00:54;27.60;;;14.30;;
73593;SDS011;64760;53.404;23.498;2023-02-28T05:03:28;30.70;;;13.27;;
73593;SDS011;64760;53.404;23.498;2023-02-28T05:05:54;34.63;;;15.98;;
73593;SDS011;64760;53.404;23.498;2023-02-28T05:08:21;25.65;;;12.77;;
73593;SDS011;64760;53.404;23.498;2023-02-28T05:10:47;65.70;;;31.10;;
73593;SDS011;64760;53.404;23.498;2023-02-28T05:13:13;30.25;;;18.90;;
73593;SDS011;64760;53.404;23.498;2023-02-28T05:15:40;32.42;;;17.38;;
73593;SDS011;64760;53.404;23.498;2023-02-28T05:18:07;41.50;;;17.40;;
73593;SDS011;64760;53.404;23.498;2023-02-28T05:20:34;40.92;;;22.55;;
73593;SDS011;64760;53.404;23.498;2023-02-28T05:23:00;55.22;;;26.00;;
73593;SDS011;64760;53.404;23.498;2023-02-28T05:25:28;55.05;;;24.80;;
73593;SDS011;64760;53.404;23.498;2023-02-28T05:27:54;54.22;;;26.27;;
73593;SDS011;64760;53.404;23.498;2023-02-28T05:30:20;43.50;;;18.15;;
73593;SDS011;64760;53.404;23.498;2023-02-28T05:32:49;46.25;;;17.65;;
73593;SDS011;64760;53.404;23.498;2023-02-28T05:35:17;45.60;;;15.57;;
73593;SDS011;64760;53.404;23.498;2023-02-28T05:37:43;44.47;;;20.70;;
73593;SDS011;64760;53.404;23.498;2023-02-28T05:40:10;47.33;;;23.52;;
73593;SDS011;64760;53.404;23.498;2023-02-28T05:42:37;85.93;;;36.38;;
73593;SDS011;64760;53.404;23.498;2023-02-28T05:45:04;79.22;;;30.63;;
73593;SDS011;64760;53.404;23.498;2023-02-28T05:47:31;98.00;;;39.83;;
73593;SDS011;64760;53.404;23.498;2023-02-28T05:49:58;68.05;;;28.80;;
73593;SDS011;64760;53.404;23.498;2023-02-28T05:52:25;59.33;;;21.80;;
73593;SDS011;64760;53.404;23.498;2023-02-28T05:54:56;93.88;;;43.85;;
73593;SDS011;64760;53.404;23.498;2023-02-28T05:57:23;74.43;;;33.20;;
73593;SDS011;64760;53.404;23.498;2023-02-28T05:59:49;60.55;;;24.17;;
73593;SDS011;64760;53.404;23.498;2023-02-28T06:02:16;49.00;;;21.75;;
73593;SDS011;64760;53.404;23.498;2023-02-28T06:04:43;34.78;;;17.33;;
73593;SDS011;64760;53.404;23.498;2023-02-28T06:07:10;34.47;;;22.17;;
73593;SDS011;64760;53.404;23.498;2023-02-28T06:09:37;48.05;;;22.33;;
73593;SDS011;64760;53.404;23.498;2023-02-28T06:12:05;45.25;;;20.52;;
73593;SDS011;64760;53.404;23.498;2023-02-28T06:14:33;41.40;;;19.58;;
73593;SDS011;64760;53.404;23.498;2023-02-28T06:17:00;43.83;;;22.35;;
73593;SDS011;64760;53.404;23.498;2023-02-28T06:19:27;57.03;;;27.67;;
73593;SDS011;64760;53.404;23.498;2023-02-28T06:21:58;72.22;;;29.95;;
73593;SDS011;64760;53.404;23.498;2023-02-28T06:24:26;56.40;;;27.90;;
73593;SDS011;64760;53.404;23.498;2023-02-28T06:26:56;48.88;;;25.60;;
73593;SDS011;64760;53.404;23.498;2023-02-28T06:29:24;66.78;;;33.28;;
73593;SDS011;64760;53.404;23.498;2023-02-28T06:31:51;86.07;;;31.98;;
73593;SDS011;64760;53.404;23.498;2023-02-28T06:34:17;69.32;;;28.15;;
73593;SDS011;64760;53.404;23.498;2023-02-28T06:36:44;67.55;;;27.80;;
73593;SDS011;64760;53.404;23.498;2023-02-28T06:39:10;57.92;;;25.90;;
73593;SDS011;64760;53.404;23.498;2023-02-28T06:41:36;57.03;;;26.80;;
73593;SDS011;64760;53.404;23.498;2023-02-28T06:44:04;61.42;;;28.85;;
73593;SDS011;64760;53.404;23.498;2023-02-28T06:46:34;41.38;;;20.33;;
73593;SDS011;64760;53.404;23.498;2023-02-28T06:49:01;54.15;;;27.55;;
73593;SDS011;64760;53.404;23.498;2023-02-28T06:51:29;42.35;;;17.80;;
73593;SDS011;64760;53.404;23.498;2023-02-28T06:53:55;51.80;;;26.10;;
73593;SDS011;64760;53.404;23.498;2023-02-28T06:56:22;48.00;;;21.95;;
73593;SDS011;64760;53.404;23.498;2023-02-28T06:58:49;53.65;;;26.20;;
73593;SDS011;64760;53.404;23.498;2023-02-28T07:01:16;30.20;;;13.00;;
73593;SDS011;64760;53.404;23.498;2023-02-28T07:03:44;24.23;;;13.45;;
73593;SDS011;64760;53.404;23.498;2023-02-28T07:06:12;50.00;;;21.48;;
73593;SDS011;64760;53.404;23.498;2023-02-28T07:08:38;47.35;;;20.77;;
73593;SDS011;64760;53.404;23.498;2023-02-28T07:11:09;40.80;;;19.02;;
73593;SDS011;64760;53.404;23.498;2023-02-28T07:13:36;58.35;;;26.58;;
73593;SDS011;64760;53.404;23.498;2023-02-28T07:16:03;45.92;;;19.80;;
73593;SDS011;64760;53.404;23.498;2023-02-28T07:18:32;27.08;;;14.05;;
73593;SDS011;64760;53.404;23.498;2023-02-28T07:21:03;29.67;;;15.90;;
73593;SDS011;64760;53.404;23.498;2023-02-28T07:23:31;28.40;;;14.80;;
73593;SDS011;64760;53.404;23.498;2023-02-28T07:25:57;12.10;;;7.30;;
73593;SDS011;64760;53.404;23.498;2023-02-28T07:28:24;22.83;;;9.20;;
73593;SDS011;64760;53.404;23.498;2023-02-28T07:30:51;28.42;;;11.50;;
73593;SDS011;64760;53.404;23.498;2023-02-28T07:33:20;23.75;;;10.00;;
73593;SDS011;64760;53.404;23.498;2023-02-28T07:35:46;20.42;;;9.13;;
73593;SDS011;64760;53.404;23.498;2023-02-28T07:38:12;21.50;;;7.10;;
73593;SDS011;64760;53.404;23.498;2023-02-28T07:40:39;19.52;;;11.02;;
73593;SDS011;64760;53.404;23.498;2023-02-28T07:43:05;16.95;;;8.20;;
73593;SDS011;64760;53.404;23.498;2023-02-28T07:45:32;8.10;;;4.22;;
73593;SDS011;64760;53.404;23.498;2023-02-28T07:48:00;16.50;;;8.32;;
73593;SDS011;64760;53.404;23.498;2023-02-28T07:50:27;18.95;;;8.10;;
73593;SDS011;64760;53.404;23.498;2023-02-28T07:52:59;32.65;;;11.85;;
73593;SDS011;64760;53.404;23.498;2023-02-28T07:55:25;7.88;;;3.95;;
73593;SDS011;64760;53.404;23.498;2023-02-28T07:57:52;13.23;;;6.38;;
73593;SDS011;64760;53.404;23.498;2023-02-28T08:00:19;17.20;;;9.15;;
73593;SDS011;64760;53.404;23.498;2023-02-28T08:02:46;18.15;;;10.07;;
73593;SDS011;64760;53.404;23.498;2023-02-28T08:05:12;10.05;;;4.85;;
73593;SDS011;64760;53.404;23.498;2023-02-28T08:07:39;24.00;;;9.65;;
73593;SDS011;64760;53.404;23.498;2023-02-28T08:10:05;41.67;;;18.40;;
73593;SDS011;64760;53.404;23.498;2023-02-28T08:12:32;19.15;;;8.10;;
73593;SDS011;64760;53.404;23.498;2023-02-28T08:14:58;15.77;;;6.50;;
73593;SDS011;64760;53.404;23.498;2023-02-28T08:17:25;30.60;;;13.90;;
73593;SDS011;64760;53.404;23.498;2023-02-28T08:19:51;9.23;;;4.05;;
73593;SDS011;64760;53.404;23.498;2023-02-28T08:22:18;18.42;;;7.95;;
73593;SDS011;64760;53.404;23.498;2023-02-28T08:24:45;24.55;;;11.43;;
73593;SDS011;64760;53.404;23.498;2023-02-28T08:27:11;13.32;;;6.38;;
73593;SDS011;64760;53.404;23.498;2023-02-28T08:29:39;22.15;;;12.30;;
73593;SDS011;64760;53.404;23.498;2023-02-28T08:32:06;19.70;;;7.65;;
73593;SDS011;64760;53.404;23.498;2023-02-28T08:34:33;8.82;;;3.95;;
73593;SDS011;64760;53.404;23.498;2023-02-28T08:37:00;18.95;;;8.80;;
73593;SDS011;64760;53.404;23.498;2023-02-28T08:39:27;14.20;;;6.88;;
73593;SDS011;64760;53.404;23.498;2023-02-28T08:41:53;11.68;;;5.50;;
73593;SDS011;64760;53.404;23.498;2023-02-28T08:44:19;6.50;;;3.65;;
73593;SDS011;64760;53.404;23.498;2023-02-28T08:46:46;12.93;;;5.35;;
73593;SDS011;64760;53.404;23.498;2023-02-28T08:49:12;10.98;;;4.50;;
73593;SDS011;64760;53.404;23.498;2023-02-28T08:51:39;13.05;;;5.18;;
73593;SDS011;64760;53.404;23.498;2023-02-28T08:54:05;8.40;;;5.22;;
73593;SDS011;64760;53.404;23.498;2023-02-28T08:56:31;9.32;;;6.10;;
73593;SDS011;64760;53.404;23.498;2023-02-28T08:58:58;11.82;;;5.50;;
73593;SDS011;64760;53.404;23.498;2023-02-28T09:01:25;19.65;;;10.43;;
73593;SDS011;64760;53.404;23.498;2023-02-28T09:03:54;26.27;;;12.93;;
73593;SDS011;64760;53.404;23.498;2023-02-28T09:06:23;16.85;;;8.98;;
73593;SDS011;64760;53.404;23.498;2023-02-28T09:08:50;4.75;;;2.45;;
73593;SDS011;64760;53.404;23.498;2023-02-28T09:11:20;13.18;;;6.45;;
73593;SDS011;64760;53.404;23.498;2023-02-28T09:13:46;9.75;;;4.55;;
73593;SDS011;64760;53.404;23.498;2023-02-28T09:16:14;8.60;;;3.95;;
73593;SDS011;64760;53.404;23.498;2023-02-28T09:18:42;6.00;;;2.88;;
73593;SDS011;64760;53.404;23.498;2023-02-28T09:21:13;8.93;;;4.53;;
73593;SDS011;64760;53.404;23.498;2023-02-28T09:23:42;10.38;;;5.05;;
73593;SDS011;64760;53.404;23.498;2023-02-28T09:26:13;15.60;;;8.02;;
73593;SDS011;64760;53.404;23.498;2023-02-28T09:28:50;6.57;;;3.55;;
73593;SDS011;64760;53.404;23.498;2023-02-28T09:31:18;9.45;;;4.32;;
73593;SDS011;64760;53.404;23.498;2023-02-28T09:33:50;8.52;;;5.53;;
73593;SDS011;64760;53.404;23.498;2023-02-28T09:36:18;6.38;;;3.72;;
73593;SDS011;64760;53.404;23.498;2023-02-28T09:38:44;13.65;;;5.85;;
73593;SDS011;64760;53.404;23.498;2023-02-28T09:41:13;14.07;;;7.53;;
73593;SDS011;64760;53.404;23.498;2023-02-28T09:44:05;16.92;;;4.43;;
73593;SDS011;64760;53.404;23.498;2023-02-28T09:49:12;8.25;;;4.32;;
73593;SDS011;64760;53.404;23.498;2023-02-28T09:54:15;7.45;;;4.43;;
73593;SDS011;64760;53.404;23.498;2023-02-28T09:56:56;10.77;;;5.80;;
73593;SDS011;64760;53.404;23.498;2023-02-28T09:59:35;12.18;;;5.40;;
73593;SDS011;64760;53.404;23.498;2023-02-28T10:05:00;10.05;;;5.28;;
73593;SDS011;64760;53.404;23.498;2023-02-28T10:13:21;7.45;;;3.88;;
73593;SDS011;64760;53.404;23.498;2023-02-28T10:15:51;8.02;;;4.55;;
73593;SDS011;64760;53.404;23.498;2023-02-28T10:18:27;6.93;;;4.32;;
73593;SDS011;64760;53.404;23.498;2023-02-28T10:21:00;10.05;;;3.92;;
73593;SDS011;64760;53.404;23.498;2023-02-28T10:23:34;7.47;;;3.97;;
73593;SDS011;64760;53.404;23.498;2023-02-28T10:26:20;5.00;;;2.40;;
73593;SDS011;64760;53.404;23.498;2023-02-28T10:28:51;7.80;;;4.53;;
73593;SDS011;64760;53.404;23.498;2023-02-28T10:31:23;16.30;;;6.40;;
73593;SDS011;64760;53.404;23.498;2023-02-28T10:33:50;5.95;;;3.30;;
73593;SDS011;64760;53.404;23.498;2023-02-28T10:36:19;7.90;;;3.33;;
73593;SDS011;64760;53.404;23.498;2023-02-28T10:38:47;8.18;;;4.45;;
73593;SDS011;64760;53.404;23.498;2023-02-28T10:41:15;8.75;;;2.90;;
73593;SDS011;64760;53.404;23.498;2023-02-28T10:44:11;10.32;;;5.28;;
73593;SDS011;64760;53.404;23.498;2023-02-28T10:46:45;10.50;;;4.85;;
73593;SDS011;64760;53.404;23.498;2023-02-28T10:49:22;7.25;;;3.45;;
73593;SDS011;64760;53.404;23.498;2023-02-28T10:51:54;6.18;;;3.00;;
73593;SDS011;64760;53.404;23.498;2023-02-28T10:54:31;9.23;;;3.70;;
73593;SDS011;64760;53.404;23.498;2023-02-28T10:59:35;9.82;;;4.63;;
73593;SDS011;64760;53.404;23.498;2023-02-28T11:02:02;5.50;;;3.25;;
73593;SDS011;64760;53.404;23.498;2023-02-28T11:07:17;5.72;;;3.33;;
73593;SDS011;64760;53.404;23.498;2023-02-28T11:09:46;3.33;;;1.65;;
73593;SDS011;64760;53.404;23.498;2023-02-28T11:14:58;7.38;;;3.60;;
73593;SDS011;64760;53.404;23.498;2023-02-28T11:17:28;10.85;;;3.88;;
73593;SDS011;64760;53.404;23.498;2023-02-28T11:20:01;12.35;;;4.40;;
73593;SDS011;64760;53.404;23.498;2023-02-28T11:22:35;7.40;;;3.83;;
73593;SDS011;64760;53.404;23.498;2023-02-28T11:25:47;7.43;;;3.53;;
73593;SDS011;64760;53.404;23.498;2023-02-28T11:27:58;8.60;;;3.47;;
73593;SDS011;64760;53.404;23.498;2023-02-28T11:30:41;6.57;;;3.45;;
73593;SDS011;64760;53.404;23.498;2023-02-28T11:36:27;6.60;;;3.60;;
73593;SDS011;64760;53.404;23.498;2023-02-28T11:39:01;5.50;;;2.72;;
73593;SDS011;64760;53.404;23.498;2023-02-28T11:44:42;6.38;;;3.15;;
73593;SDS011;64760;53.404;23.498;2023-02-28T11:55:27;7.80;;;3.65;;
73593;SDS011;64760;53.404;23.498;2023-02-28T12:01:28;8.57;;;3.38;;
73593;SDS011;64760;53.404;23.498;2023-02-28T12:15:02;5.80;;;2.88;;
73593;SDS011;64760;53.404;23.498;2023-02-28T12:23:10;9.45;;;4.47;;
73593;SDS011;64760;53.404;23.498;2023-02-28T12:25:50;4.85;;;2.92;;
73593;SDS011;64760;53.404;23.498;2023-02-28T12:28:39;4.82;;;2.75;;
73593;SDS011;64760;53.404;23.498;2023-02-28T12:31:23;6.32;;;3.00;;
73593;SDS011;64760;53.404;23.498;2023-02-28T12:33:56;5.57;;;2.58;;
73593;SDS011;64760;53.404;23.498;2023-02-28T12:36:29;8.35;;;4.05;;
73593;SDS011;64760;53.404;23.498;2023-02-28T12:41:41;10.80;;;4.47;;
73593;SDS011;64760;53.404;23.498;2023-02-28T12:44:13;8.20;;;3.85;;
73593;SDS011;64760;53.404;23.498;2023-02-28T12:46:55;5.82;;;2.35;;
73593;SDS011;64760;53.404;23.498;2023-02-28T12:52:14;10.57;;;3.95;;
73593;SDS011;64760;53.404;23.498;2023-02-28T12:54:53;6.45;;;2.97;;
73593;SDS011;64760;53.404;23.498;2023-02-28T13:00:03;9.80;;;4.35;;
73593;SDS011;64760;53.404;23.498;2023-02-28T13:02:51;9.25;;;4.03;;
73593;SDS011;64760;53.404;23.498;2023-02-28T13:11:02;6.65;;;3.00;;
73593;SDS011;64760;53.404;23.498;2023-02-28T13:13:29;10.07;;;4.10;;
73593;SDS011;64760;53.404;23.498;2023-02-28T13:16:03;11.65;;;3.83;;
73593;SDS011;64760;53.404;23.498;2023-02-28T13:21:28;7.28;;;3.67;;
73593;SDS011;64760;53.404;23.498;2023-02-28T13:24:00;6.20;;;3.05;;
73593;SDS011;64760;53.404;23.498;2023-02-28T13:34:40;16.73;;;6.93;;
73593;SDS011;64760;53.404;23.498;2023-02-28T13:50:29;17.83;;;5.93;;
73593;SDS011;64760;53.404;23.498;2023-02-28T13:58:28;12.85;;;4.80;;
73593;SDS011;64760;53.404;23.498;2023-02-28T14:01:27;7.68;;;2.85;;
73593;SDS011;64760;53.404;23.498;2023-02-28T14:04:29;9.00;;;4.40;;
73593;SDS011;64760;53.404;23.498;2023-02-28T14:07:15;9.63;;;4.15;;
73593;SDS011;64760;53.404;23.498;2023-02-28T14:09:46;4.30;;;1.80;;
73593;SDS011;64760;53.404;23.498;2023-02-28T14:15:36;8.90;;;3.47;;
73593;SDS011;64760;53.404;23.498;2023-02-28T14:21:13;11.38;;;7.20;;
73593;SDS011;64760;53.404;23.498;2023-02-28T14:26:56;8.20;;;4.10;;
73593;SDS011;64760;53.404;23.498;2023-02-28T14:30:20;7.97;;;3.38;;
73593;SDS011;64760;53.404;23.498;2023-02-28T14:36:17;8.85;;;4.25;;
73593;SDS011;64760;53.404;23.498;2023-02-28T14:38:54;12.30;;;4.57;;
73593;SDS011;64760;53.404;23.498;2023-02-28T14:41:29;12.95;;;5.68;;
73593;SDS011;64760;53.404;23.498;2023-02-28T14:44:11;10.02;;;4.15;;
73593;SDS011;64760;53.404;23.498;2023-02-28T14:49:20;7.30;;;3.42;;
73593;SDS011;64760;53.404;23.498;2023-02-28T14:51:50;8.15;;;3.92;;
73593;SDS011;64760;53.404;23.498;2023-02-28T14:54:29;8.77;;;3.35;;
73593;SDS011;64760;53.404;23.498;2023-02-28T14:56:55;56.28;;;30.48;;
73593;SDS011;64760;53.404;23.498;2023-02-28T14:59:27;11.55;;;5.22;;
73593;SDS011;64760;53.404;23.498;2023-02-28T15:04:53;13.07;;;3.47;;
73593;SDS011;64760;53.404;23.498;2023-02-28T15:07:21;11.32;;;4.53;;
73593;SDS011;64760;53.404;23.498;2023-02-28T15:13:10;4.57;;;2.35;;
73593;SDS011;64760;53.404;23.498;2023-02-28T15:21:25;9.10;;;3.85;;
73593;SDS011;64760;53.404;23.498;2023-02-28T15:23:58;12.25;;;5.85;;
73593;SDS011;64760;53.404;23.498;2023-02-28T15:26:30;2.15;;;1.80;;
73593;SDS011;64760;53.404;23.498;2023-02-28T15:29:05;10.10;;;4.22;;
73593;SDS011;64760;53.404;23.498;2023-02-28T15:31:34;6.82;;;3.78;;
73593;SDS011;64760;53.404;23.498;2023-02-28T15:34:12;14.18;;;6.88;;
73593;SDS011;64760;53.404;23.498;2023-02-28T15:36:46;9.63;;;4.95;;
73593;SDS011;64760;53.404;23.498;2023-02-28T15:39:23;11.25;;;5.22;;
73593;SDS011;64760;53.404;23.498;2023-02-28T15:42:12;26.73;;;10.48;;
73593;SDS011;64760;53.404;23.498;2023-02-28T15:44:44;93.15;;;44.28;;
73593;SDS011;64760;53.404;23.498;2023-02-28T15:47:20;20.88;;;9.60;;
73593;SDS011;64760;53.404;23.498;2023-02-28T15:49:53;37.53;;;16.70;;
73593;SDS011;64760;53.404;23.498;2023-02-28T15:52:29;18.65;;;9.32;;
73593;SDS011;64760;53.404;23.498;2023-02-28T15:55:10;29.58;;;13.30;;
73593;SDS011;64760;53.404;23.498;2023-02-28T15:57:47;17.35;;;9.32;;
73593;SDS011;64760;53.404;23.498;2023-02-28T16:00:19;16.20;;;6.55;;
73593;SDS011;64760;53.404;23.498;2023-02-28T16:02:47;19.25;;;7.90;;
73593;SDS011;64760;53.404;23.498;2023-02-28T16:05:22;14.77;;;4.97;;
73593;SDS011;64760;53.404;23.498;2023-02-28T16:07:54;11.70;;;6.07;;
73593;SDS011;64760;53.404;23.498;2023-02-28T16:10:22;20.98;;;8.80;;
73593;SDS011;64760;53.404;23.498;2023-02-28T16:12:56;17.77;;;9.43;;
73593;SDS011;64760;53.404;23.498;2023-02-28T16:15:25;15.25;;;7.38;;
73593;SDS011;64760;53.404;23.498;2023-02-28T16:17:54;19.02;;;8.30;;
73593;SDS011;64760;53.404;23.498;2023-02-28T16:20:23;24.38;;;11.52;;
73593;SDS011;64760;53.404;23.498;2023-02-28T16:22:54;18.65;;;9.70;;
73593;SDS011;64760;53.404;23.498;2023-02-28T16:25:23;17.17;;;9.13;;
73593;SDS011;64760;53.404;23.498;2023-02-28T16:28:20;28.55;;;13.15;;
73593;SDS011;64760;53.404;23.498;2023-02-28T16:30:53;41.65;;;17.70;;
73593;SDS011;64760;53.404;23.498;2023-02-28T16:33:19;17.05;;;9.50;;
73593;SDS011;64760;53.404;23.498;2023-02-28T16:35:46;28.48;;;12.20;;
73593;SDS011;64760;53.404;23.498;2023-02-28T16:38:12;20.80;;;10.60;;
73593;SDS011;64760;53.404;23.498;2023-02-28T16:40:38;18.15;;;7.78;;
73593;SDS011;64760;53.404;23.498;2023-02-28T16:43:06;11.05;;;5.18;;
73593;SDS011;64760;53.404;23.498;2023-02-28T16:45:42;12.48;;;5.90;;
73593;SDS011;64760;53.404;23.498;2023-02-28T16:48:10;24.77;;;12.60;;
73593;SDS011;64760;53.404;23.498;2023-02-28T16:50:41;23.70;;;10.85;;
73593;SDS011;64760;53.404;23.498;2023-02-28T16:53:10;67.13;;;27.48;;
73593;SDS011;64760;53.404;23.498;2023-02-28T16:55:36;16.02;;;9.07;;
73593;SDS011;64760;53.404;23.498;2023-02-28T16:58:04;23.17;;;11.88;;
73593;SDS011;64760;53.404;23.498;2023-02-28T17:00:33;18.80;;;8.27;;
73593;SDS011;64760;53.404;23.498;2023-02-28T17:03:00;21.33;;;9.43;;
73593;SDS011;64760;53.404;23.498;2023-02-28T17:05:28;14.57;;;7.95;;
73593;SDS011;64760;53.404;23.498;2023-02-28T17:08:01;27.63;;;14.30;;
73593;SDS011;64760;53.404;23.498;2023-02-28T17:10:28;24.58;;;12.38;;
73593;SDS011;64760;53.404;23.498;2023-02-28T17:12:56;25.88;;;10.63;;
73593;SDS011;64760;53.404;23.498;2023-02-28T17:15:22;28.63;;;14.15;;
73593;SDS011;64760;53.404;23.498;2023-02-28T17:17:49;61.05;;;30.60;;
73593;SDS011;64760;53.404;23.498;2023-02-28T17:20:18;25.85;;;13.10;;